Time;durP1;ratioP1;P1;durP2;ratioP2;P2;SDS_P1;SDS_P2;PMS_P1;PMS_P2;Temp;Humidity;BMP_temperature;BMP_pressure;BME280_temperature;BME280_humidity;BME280_pressure;Samples;Min_cycle;Max_cycle;Signal;HPM_P1;HPM_P2
2022/09/22 00:02:22;;;;;;;10.25;5.68;;;;;;;15.23;52.88;102616.06;5011635;28;20062;-74
2022/09/22 00:04:48;;;;;;;10.10;5.68;;;;;;;15.22;53.22;102609.78;5012035;28;20109;-74
2022/09/22 00:07:13;;;;;;;12.57;5.82;;;;;;;15.18;52.94;102610.41;5011723;28;20122;-75
2022/09/22 00:09:38;;;;;;;9.65;4.93;;;;;;;15.21;52.75;102604.59;5021005;28;20532;-74
2022/09/22 00:12:04;;;;;;;7.20;5.07;;;;;;;15.14;53.28;102609.19;5031488;28;20038;-73
2022/09/22 00:14:29;;;;;;;10.90;5.43;;;;;;;15.11;53.30;102609.63;5031427;28;20045;-75
2022/09/22 00:16:59;;;;;;;7.70;5.30;;;;;;;15.12;53.46;102617.53;5034930;28;20532;-75
2022/09/22 00:19:43;;;;;;;9.00;5.50;;;;;;;15.10;53.25;102611.50;5035316;28;20055;-74
2022/09/22 00:22:08;;;;;;;10.70;5.57;;;;;;;15.09;52.97;102604.44;5035256;28;20490;-74
2022/09/22 00:24:34;;;;;;;9.57;6.70;;;;;;;15.04;53.07;102603.38;5034532;28;20037;-74
2022/09/22 00:27:00;;;;;;;8.50;5.63;;;;;;;14.98;53.07;102605.88;5035033;28;20565;-74
2022/09/22 00:29:27;;;;;;;10.68;6.05;;;;;;;15.02;53.04;102597.38;5035033;28;20037;-75
2022/09/22 00:31:53;;;;;;;12.02;6.60;;;;;;;14.94;53.20;102596.53;5035132;28;20038;-75
2022/09/22 00:34:22;;;;;;;13.57;6.57;;;;;;;14.96;52.89;102599.84;5034693;28;20033;-76
2022/09/22 00:36:48;;;;;;;12.48;5.75;;;;;;;14.98;52.81;102596.13;5034667;28;20037;-75
2022/09/22 00:39:15;;;;;;;12.05;5.45;;;;;;;14.97;53.04;102600.69;5034517;28;20037;-74
2022/09/22 00:41:44;;;;;;;11.43;5.80;;;;;;;14.89;52.88;102596.34;5034729;28;20121;-74
2022/09/22 00:44:29;;;;;;;11.32;5.93;;;;;;;14.88;52.83;102593.81;5034825;28;20041;-74
2022/09/22 00:47:20;;;;;;;17.60;7.55;;;;;;;14.93;52.95;102596.75;5035049;28;20021;-73
2022/09/22 00:49:54;;;;;;;10.33;5.23;;;;;;;14.85;52.57;102588.84;5034758;28;20464;-73
2022/09/22 00:52:31;;;;;;;11.70;5.88;;;;;;;14.90;52.95;102589.03;5034417;28;20049;-74
2022/09/22 00:55:01;;;;;;;9.77;5.82;;;;;;;14.84;52.84;102588.00;5034207;28;20046;-75
2022/09/22 00:57:31;;;;;;;10.27;5.50;;;;;;;14.82;52.92;102587.38;5034244;28;20123;-75
2022/09/22 00:59:57;;;;;;;8.60;5.20;;;;;;;14.83;52.74;102585.50;5034479;28;20042;-75
2022/09/22 01:02:23;;;;;;;9.65;4.97;;;;;;;14.80;52.93;102580.53;5034401;28;20036;-76
2022/09/22 01:04:50;;;;;;;12.10;5.25;;;;;;;14.74;53.08;102581.38;5034600;28;20048;-74
2022/09/22 01:07:18;;;;;;;12.15;5.05;;;;;;;14.76;52.74;102576.59;5034309;28;20037;-73
2022/09/22 01:09:44;;;;;;;10.45;6.07;;;;;;;14.76;52.63;102568.47;5034006;28;20041;-75
2022/09/22 01:12:09;;;;;;;7.80;4.90;;;;;;;14.70;52.70;102563.88;5034077;28;20045;-75
2022/09/22 01:15:01;;;;;;;10.68;5.55;;;;;;;14.66;52.94;102557.22;5034337;28;20037;-75
2022/09/22 01:17:50;;;;;;;7.53;4.63;;;;;;;14.64;53.01;102556.63;5014151;28;20046;-74
2022/09/22 01:20:35;;;;;;;9.45;4.72;;;;;;;14.68;52.73;102557.84;5024828;28;21097;-74
2022/09/22 01:23:19;;;;;;;9.45;5.50;;;;;;;14.62;53.11;102550.59;5034165;28;20044;-73
2022/09/22 01:26:14;;;;;;;7.47;4.53;;;;;;;14.58;53.19;102550.16;5033980;28;20436;-74
2022/09/22 01:28:51;;;;;;;6.35;4.75;;;;;;;14.67;52.91;102550.75;5033919;28;20045;-74
2022/09/22 01:31:20;;;;;;;8.23;5.13;;;;;;;14.56;52.98;102552.25;5029767;28;20053;-75
2022/09/22 01:33:58;;;;;;;10.13;4.85;;;;;;;14.61;52.96;102549.75;5013964;28;20038;-75
2022/09/22 01:36:39;;;;;;;8.23;4.95;;;;;;;14.55;52.92;102542.47;5014672;28;20077;-75
2022/09/22 01:39:25;;;;;;;6.10;5.00;;;;;;;14.55;53.18;102547.88;5014551;28;20442;-76
2022/09/22 01:42:08;;;;;;;7.15;4.95;;;;;;;14.55;52.73;102556.00;5013966;28;20026;-75
2022/09/22 01:44:48;;;;;;;6.90;4.82;;;;;;;14.52;52.86;102547.47;5013724;28;20056;-75
2022/09/22 01:47:41;;;;;;;7.45;5.10;;;;;;;14.50;53.21;102546.84;5013769;28;20042;-75
2022/09/22 01:50:15;;;;;;;5.68;4.22;;;;;;;14.46;53.20;102548.28;4991177;28;20056;-75
2022/09/22 01:52:41;;;;;;;6.53;4.32;;;;;;;14.38;53.42;102543.94;4991918;28;20110;-73
2022/09/22 01:55:21;;;;;;;7.03;4.68;;;;;;;14.35;53.28;102535.41;4990882;28;20592;-74
2022/09/22 01:58:04;;;;;;;10.48;3.83;;;;;;;14.35;53.28;102536.22;4991176;28;20054;-74
2022/09/22 02:00:31;;;;;;;7.22;4.80;;;;;;;14.33;53.29;102535.59;4991068;28;20041;-75
2022/09/22 02:03:14;;;;;;;7.43;4.30;;;;;;;14.34;53.50;102537.28;5006645;28;20034;-74
2022/09/22 02:05:48;;;;;;;6.82;4.22;;;;;;;14.32;53.42;102528.53;5010657;28;20040;-74
2022/09/22 02:08:36;;;;;;;10.43;4.60;;;;;;;14.28;53.45;102531.88;5010382;28;20517;-74
2022/09/22 02:11:08;;;;;;;7.75;3.95;;;;;;;14.24;53.90;102527.88;4993884;28;20037;-74
2022/09/22 02:13:35;;;;;;;6.05;4.47;;;;;;;14.16;53.63;102526.22;5010917;28;20192;-73
2022/09/22 02:16:01;;;;;;;5.07;3.63;;;;;;;14.11;53.76;102526.03;5001049;28;20043;-74
2022/09/22 02:18:30;;;;;;;5.28;3.50;;;;;;;14.19;53.49;102520.38;5009294;28;20042;-74
2022/09/22 02:20:56;;;;;;;9.70;4.07;;;;;;;14.14;53.70;102525.59;5010616;28;20124;-74
2022/09/22 02:23:21;;;;;;;6.05;3.90;;;;;;;14.12;53.53;102522.25;5010147;28;20434;-74
2022/09/22 02:25:48;;;;;;;5.63;4.22;;;;;;;14.06;53.54;102520.38;5010590;28;20049;-74
2022/09/22 02:28:17;;;;;;;5.95;4.32;;;;;;;14.09;53.23;102512.69;5020549;28;20057;-74
2022/09/22 02:30:46;;;;;;;6.53;4.35;;;;;;;14.09;53.39;102517.28;5032528;28;20037;-74
2022/09/22 02:33:12;;;;;;;6.03;4.90;;;;;;;13.99;53.23;102522.25;5032334;28;20033;-72
2022/09/22 02:35:39;;;;;;;8.10;4.72;;;;;;;14.07;53.22;102512.06;5032471;28;20448;-73
2022/09/22 02:38:22;;;;;;;7.60;4.10;;;;;;;13.93;54.13;102514.97;5032001;28;20478;-73
2022/09/22 02:41:09;;;;;;;6.10;4.72;;;;;;;13.93;54.00;102504.16;5048200;28;20055;-74
2022/09/22 02:43:47;;;;;;;11.32;5.43;;;;;;;13.83;54.51;102511.84;5032759;28;20141;-74
2022/09/22 02:46:22;;;;;;;9.80;4.97;;;;;;;13.85;54.37;102507.91;5032353;28;20034;-73
2022/09/22 02:48:56;;;;;;;6.60;4.80;;;;;;;13.84;54.19;102508.09;5032147;28;20064;-75
2022/09/22 02:51:22;;;;;;;9.77;5.03;;;;;;;13.99;53.71;102508.75;5031997;28;20489;-75
2022/09/22 02:53:47;;;;;;;6.65;4.78;;;;;;;13.88;53.80;102503.94;5032312;28;20048;-74
2022/09/22 02:56:13;;;;;;;10.60;5.00;;;;;;;13.90;54.11;102504.56;5032221;28;20383;-75
2022/09/22 02:58:38;;;;;;;8.68;5.82;;;;;;;13.88;54.09;102503.94;5032709;28;20030;-74
2022/09/22 03:01:04;;;;;;;8.35;5.50;;;;;;;13.94;54.27;102497.72;5032211;28;20037;-74
2022/09/22 03:03:29;;;;;;;10.00;4.90;;;;;;;13.92;53.96;102497.09;5032040;28;20685;-73
2022/09/22 03:05:55;;;;;;;9.05;5.88;;;;;;;13.89;54.04;102492.09;5032164;28;20095;-73
2022/09/22 03:08:20;;;;;;;9.93;5.00;;;;;;;13.90;54.03;102497.28;5032462;28;20548;-73
2022/09/22 03:10:46;;;;;;;11.00;5.22;;;;;;;13.91;54.39;102496.28;5032445;28;20065;-73
2022/09/22 03:13:11;;;;;;;7.20;5.00;;;;;;;13.91;53.92;102485.47;5038166;28;20057;-74
2022/09/22 03:15:36;;;;;;;7.57;5.30;;;;;;;13.84;53.76;102489.16;5046161;28;20444;-73
2022/09/22 03:18:03;;;;;;;9.65;5.05;;;;;;;13.87;54.09;102480.66;5032382;28;20057;-73
2022/09/22 03:20:28;;;;;;;7.25;4.88;;;;;;;13.77;54.10;102485.66;5032289;28;20045;-75
2022/09/22 03:22:54;;;;;;;5.45;4.85;;;;;;;13.80;54.05;102483.34;5032579;28;20045;-74
2022/09/22 03:25:19;;;;;;;8.25;5.38;;;;;;;13.81;53.87;102478.78;5031726;28;20037;-75
2022/09/22 03:27:45;;;;;;;8.95;4.80;;;;;;;13.83;53.72;102482.97;5032105;28;20029;-74
2022/09/22 03:30:10;;;;;;;8.00;5.07;;;;;;;13.90;53.77;102485.66;5031797;28;20038;-75
2022/09/22 03:32:36;;;;;;;6.70;4.65;;;;;;;13.82;54.06;102480.44;5031577;28;20109;-74
2022/09/22 03:35:02;;;;;;;7.93;5.03;;;;;;;13.82;53.75;102475.88;5031856;28;20038;-74
2022/09/22 03:37:27;;;;;;;9.77;5.18;;;;;;;13.84;53.83;102475.66;5032148;28;20490;-74
2022/09/22 03:39:52;;;;;;;7.00;4.05;;;;;;;13.76;53.84;102473.16;5031708;28;20127;-74
2022/09/22 03:42:18;;;;;;;6.43;4.55;;;;;;;13.76;53.83;102470.44;5031558;28;20466;-74
2022/09/22 03:44:43;;;;;;;8.27;4.65;;;;;;;13.68;53.87;102476.09;5031704;28;20091;-73
2022/09/22 03:47:09;;;;;;;6.20;4.20;;;;;;;13.73;53.72;102473.59;5031866;28;20478;-74
2022/09/22 03:49:34;;;;;;;5.47;4.32;;;;;;;13.83;53.59;102474.00;5033661;28;20029;-74
2022/09/22 03:52:00;;;;;;;7.07;5.40;;;;;;;13.73;53.69;102477.13;5035571;28;20117;-74
2022/09/22 03:54:26;;;;;;;4.53;3.95;;;;;;;13.71;53.68;102472.97;5035304;28;20045;-74
2022/09/22 03:56:51;;;;;;;5.88;4.00;;;;;;;13.69;53.80;102472.31;5035220;28;20040;-75
2022/09/22 03:59:17;;;;;;;5.35;4.32;;;;;;;13.66;53.63;102475.47;5035046;28;20087;-73
2022/09/22 04:01:43;;;;;;;5.53;4.07;;;;;;;13.46;54.45;102470.03;5032251;28;20044;-73
2022/09/22 04:04:08;;;;;;;4.50;3.65;;;;;;;13.37;54.59;102478.47;5033970;28;20084;-73
2022/09/22 04:06:35;;;;;;;6.22;3.67;;;;;;;13.36;54.34;102469.56;5033941;28;20045;-75
2022/09/22 04:09:00;;;;;;;5.15;3.63;;;;;;;13.48;54.23;102467.09;5035807;28;20123;-74
2022/09/22 04:11:26;;;;;;;7.07;4.43;;;;;;;13.56;53.86;102470.44;5034458;28;20573;-75
2022/09/22 04:13:53;;;;;;;4.95;3.45;;;;;;;13.60;53.79;102460.88;5034534;28;20037;-74
2022/09/22 04:16:18;;;;;;;3.88;3.13;;;;;;;13.57;54.13;102457.75;5033927;28;20049;-74
2022/09/22 04:18:44;;;;;;;3.45;2.97;;;;;;;13.53;53.85;102464.59;5049314;28;20060;-74
2022/09/22 04:21:09;;;;;;;6.50;3.63;;;;;;;13.53;53.77;102461.91;5054237;28;20117;-72
2022/09/22 04:23:35;;;;;;;4.88;3.53;;;;;;;13.54;53.89;102460.88;5054387;28;20603;-74
2022/09/22 04:26:01;;;;;;;3.95;3.42;;;;;;;13.54;53.60;102463.59;5055211;28;20036;-75
2022/09/22 04:28:28;;;;;;;4.15;3.28;;;;;;;13.58;53.81;102460.25;5046033;28;20029;-73
2022/09/22 04:30:53;;;;;;;3.47;3.13;;;;;;;13.50;53.86;102459.63;5035116;28;20042;-74
2022/09/22 04:33:19;;;;;;;4.22;3.03;;;;;;;13.51;53.73;102450.47;5034968;28;20065;-74
2022/09/22 04:35:46;;;;;;;3.15;2.80;;;;;;;13.48;54.18;102445.50;5034906;28;20092;-74
2022/09/22 04:38:12;;;;;;;3.45;3.13;;;;;;;13.50;54.13;102441.56;5035207;28;20037;-74
2022/09/22 04:40:38;;;;;;;4.55;3.38;;;;;;;13.53;53.85;102451.94;5035578;28;20040;-74
2022/09/22 04:43:03;;;;;;;5.32;3.35;;;;;;;13.40;54.00;102441.13;5034874;28;20481;-75
2022/09/22 04:45:28;;;;;;;3.28;2.95;;;;;;;13.45;53.86;102443.19;5034728;28;20096;-74
2022/09/22 04:47:54;;;;;;;3.28;2.97;;;;;;;13.45;53.75;102443.19;5034843;28;20048;-74
2022/09/22 04:50:21;;;;;;;3.58;3.28;;;;;;;13.47;54.02;102446.53;5034828;28;20048;-73
2022/09/22 04:52:49;;;;;;;4.97;2.83;;;;;;;13.47;53.67;102449.22;5035117;28;20030;-73
2022/09/22 04:55:15;;;;;;;11.45;3.20;;;;;;;13.44;53.50;102445.09;5034346;28;20096;-74
2022/09/22 04:57:55;;;;;;;3.67;3.17;;;;;;;13.53;53.78;102437.59;5034793;28;20490;-73
2022/09/22 05:00:23;;;;;;;3.60;3.10;;;;;;;13.42;53.89;102444.47;5034129;28;20040;-74
2022/09/22 05:02:49;;;;;;;3.50;3.03;;;;;;;13.41;53.81;102447.34;5034016;28;20117;-74
2022/09/22 05:05:15;;;;;;;5.63;2.97;;;;;;;13.37;53.82;102449.63;5036091;28;20167;-75
2022/09/22 05:07:46;;;;;;;4.53;3.65;;;;;;;13.36;53.83;102452.53;5034991;28;20029;-75
2022/09/22 05:10:18;;;;;;;4.45;3.60;;;;;;;13.40;53.63;102449.22;5034110;28;20045;-73
2022/09/22 05:12:44;;;;;;;3.72;2.70;;;;;;;13.34;53.68;102458.16;5034108;28;20045;-73
2022/09/22 05:15:12;;;;;;;3.70;3.13;;;;;;;13.31;54.02;102453.13;5033969;28;20050;-73
2022/09/22 05:17:45;;;;;;;3.70;3.28;;;;;;;13.28;53.84;102458.97;5033983;28;20038;-74
2022/09/22 05:20:10;;;;;;;4.22;3.17;;;;;;;13.33;53.88;102458.31;5033884;28;20037;-73
2022/09/22 05:22:38;;;;;;;5.85;3.22;;;;;;;13.37;54.05;102459.59;5034318;28;20029;-74
2022/09/22 05:25:06;;;;;;;5.60;3.65;;;;;;;13.27;53.59;102459.16;5033499;28;20096;-73
2022/09/22 05:27:31;;;;;;;4.97;3.00;;;;;;;13.27;53.86;102457.28;5033808;28;20034;-75
2022/09/22 05:29:57;;;;;;;4.90;3.78;;;;;;;13.35;54.17;102464.34;5033840;28;20181;-75
2022/09/22 05:32:22;;;;;;;6.45;3.75;;;;;;;13.36;54.02;102460.63;5021927;28;20058;-74
2022/09/22 05:34:47;;;;;;;4.45;3.13;;;;;;;13.38;53.98;102462.09;5014007;28;20034;-75
2022/09/22 05:37:13;;;;;;;5.40;3.63;;;;;;;13.32;54.04;102467.47;5013960;28;20107;-74
2022/09/22 05:39:38;;;;;;;6.75;4.60;;;;;;;13.35;54.05;102467.06;5013704;28;20445;-74
2022/09/22 05:42:03;;;;;;;3.58;3.05;;;;;;;13.39;54.10;102463.75;5014229;28;20066;-75
2022/09/22 05:44:29;;;;;;;4.10;3.60;;;;;;;13.40;54.04;102457.34;5030089;28;20029;-74
2022/09/22 05:46:54;;;;;;;4.70;3.17;;;;;;;13.38;53.91;102464.81;5033786;28;20064;-74
2022/09/22 05:49:19;;;;;;;5.38;3.30;;;;;;;13.40;54.34;102468.13;5045383;28;20586;-74
2022/09/22 05:51:45;;;;;;;5.32;3.63;;;;;;;13.45;54.26;102468.34;5036802;28;20040;-74
2022/09/22 05:54:11;;;;;;;4.00;3.13;;;;;;;13.48;53.89;102459.00;5038323;28;20028;-74
2022/09/22 05:56:36;;;;;;;6.93;3.25;;;;;;;13.51;54.17;102464.81;5040726;28;20037;-75
2022/09/22 05:59:02;;;;;;;7.32;3.50;;;;;;;13.56;53.92;102462.31;5043673;28;20048;-73
2022/09/22 06:01:27;;;;;;;7.13;3.60;;;;;;;13.62;53.85;102458.81;5033575;28;20069;-73
2022/09/22 06:03:53;;;;;;;5.95;3.50;;;;;;;13.58;54.12;102467.53;5038919;28;20513;-73
2022/09/22 06:06:18;;;;;;;6.60;3.63;;;;;;;13.68;54.08;102463.38;5032839;28;20045;-74
2022/09/22 06:08:43;;;;;;;7.70;3.38;;;;;;;13.72;54.09;102461.94;5029409;28;20447;-75
2022/09/22 06:11:09;;;;;;;12.15;3.72;;;;;;;13.69;53.92;102461.53;5031576;28;20037;-76
2022/09/22 06:13:35;;;;;;;5.72;3.60;;;;;;;13.72;54.21;102464.63;5032520;28;20036;-76
2022/09/22 06:16:01;;;;;;;6.32;3.58;;;;;;;13.77;54.07;102462.16;5031906;28;20989;-75
2022/09/22 06:18:27;;;;;;;5.95;3.70;;;;;;;13.84;54.02;102459.44;5044177;28;20047;-74
2022/09/22 06:20:55;;;;;;;11.70;3.88;;;;;;;13.91;54.24;102460.31;5050790;28;20478;-74
2022/09/22 06:23:21;;;;;;;6.03;3.85;;;;;;;13.96;54.16;102464.03;5048455;28;20036;-74
2022/09/22 06:25:46;;;;;;;5.85;4.53;;;;;;;14.05;54.35;102461.97;5037788;28;20171;-74
2022/09/22 06:28:16;;;;;;;5.55;4.78;;;;;;;14.07;54.45;102458.00;5048910;28;20111;-73
2022/09/22 06:30:41;;;;;;;9.05;6.95;;;;;;;14.22;54.75;102459.66;5048706;28;20057;-75
2022/09/22 06:33:08;;;;;;;7.13;5.03;;;;;;;14.26;54.79;102456.34;5034565;28;20053;-74
2022/09/22 06:35:36;;;;;;;6.70;5.22;;;;;;;14.34;54.63;102456.16;5031347;28;20058;-75
2022/09/22 06:38:06;;;;;;;10.35;6.32;;;;;;;14.46;54.40;102464.44;5029182;28;20638;-73
2022/09/22 06:40:35;;;;;;;7.75;5.97;;;;;;;14.53;54.68;102457.13;5026224;28;20450;-73
2022/09/22 06:43:10;;;;;;;9.32;6.22;;;;;;;14.59;53.89;102467.09;5040187;28;21358;-74
2022/09/22 06:45:36;;;;;;;7.03;6.30;;;;;;;14.70;53.79;102464.56;5031831;28;20565;-73
2022/09/22 06:48:02;;;;;;;8.88;6.72;;;;;;;14.75;54.36;102464.78;5031637;28;20037;-75
2022/09/22 06:50:31;;;;;;;14.82;7.20;;;;;;;14.86;53.52;102458.69;5026495;28;20036;-75
2022/09/22 06:53:01;;;;;;;9.23;6.95;;;;;;;14.96;53.81;102464.50;5030273;28;20032;-75
2022/09/22 06:55:28;;;;;;;10.38;6.90;;;;;;;14.97;53.77;102459.91;5038356;28;20025;-74
2022/09/22 06:57:57;;;;;;;13.30;8.07;;;;;;;15.03;54.22;102458.22;5035133;28;20032;-74
2022/09/22 07:00:29;;;;;;;14.20;8.40;;;;;;;15.14;53.62;102471.06;5030115;28;20029;-73
2022/09/22 07:03:03;;;;;;;9.05;8.10;;;;;;;15.31;53.78;102469.56;5029759;28;20076;-75
2022/09/22 07:05:29;;;;;;;11.40;9.10;;;;;;;15.31;53.92;102464.13;5028787;28;20045;-75
2022/09/22 07:07:55;;;;;;;13.02;9.57;;;;;;;15.40;53.21;102462.81;5031187;28;20085;-72
2022/09/22 07:10:20;;;;;;;12.63;9.48;;;;;;;15.45;53.67;102468.47;5029454;28;20033;-73
2022/09/22 07:12:48;;;;;;;12.93;9.38;;;;;;;15.58;53.27;102463.78;5030024;28;20458;-74
2022/09/22 07:15:13;;;;;;;14.90;10.45;;;;;;;15.60;53.90;102460.84;5030197;28;20501;-72
2022/09/22 07:17:39;;;;;;;14.95;10.50;;;;;;;15.74;53.33;102457.81;5029404;28;20054;-74
2022/09/22 07:20:05;;;;;;;16.23;10.55;;;;;;;15.80;53.13;102454.22;5030206;28;20029;-75
2022/09/22 07:22:31;;;;;;;22.52;11.70;;;;;;;15.88;53.35;102446.88;5030654;28;20095;-75
2022/09/22 07:24:56;;;;;;;14.00;12.27;;;;;;;15.93;52.98;102453.31;5029571;28;20052;-74
2022/09/22 07:27:24;;;;;;;14.27;10.73;;;;;;;16.05;52.65;102451.53;5029441;28;20120;-76
2022/09/22 07:29:50;;;;;;;12.93;11.43;;;;;;;16.10;52.52;102459.81;5030394;28;20057;-74
2022/09/22 07:32:16;;;;;;;14.43;12.00;;;;;;;16.10;52.43;102451.69;5027737;28;20653;-73
2022/09/22 07:34:41;;;;;;;17.30;11.85;;;;;;;16.27;52.69;102447.38;5029111;28;20029;-73
2022/09/22 07:37:10;;;;;;;18.17;11.68;;;;;;;16.39;52.37;102455.59;5029036;28;20409;-73
2022/09/22 07:39:35;;;;;;;20.88;12.68;;;;;;;16.26;52.73;102450.28;5028119;28;20055;-73
2022/09/22 07:42:03;;;;;;;14.38;11.82;;;;;;;16.49;52.34;102451.34;5028585;28;20049;-74
2022/09/22 07:47:12;;;;;;;21.42;10.88;;;;;;;16.65;51.60;102447.19;5028945;28;20539;-72
2022/09/22 07:49:37;;;;;;;16.23;10.40;;;;;;;16.78;51.63;102441.63;5029212;28;20033;-75
2022/09/22 07:52:03;;;;;;;12.82;10.38;;;;;;;16.85;51.45;102453.22;5028731;28;20034;-72
2022/09/22 07:54:28;;;;;;;13.40;9.60;;;;;;;16.89;51.25;102449.00;5030238;28;20117;-71
2022/09/22 07:56:57;;;;;;;15.55;9.98;;;;;;;17.02;51.31;102446.09;5027687;28;20060;-74
2022/09/22 07:59:23;;;;;;;13.05;9.65;;;;;;;17.11;51.35;102446.63;5026837;28;20037;-74
2022/09/22 08:01:50;;;;;;;12.93;10.23;;;;;;;17.22;51.34;102438.53;5026919;28;20759;-72
2022/09/22 08:04:21;;;;;;;15.00;9.65;;;;;;;17.32;50.92;102446.13;5028660;28;20030;-78
2022/09/22 08:06:48;;;;;;;14.93;9.13;;;;;;;17.50;50.84;102440.66;5029030;28;20061;-76
2022/09/22 08:09:14;;;;;;;16.60;8.68;;;;;;;17.59;50.42;102443.91;5029623;28;20073;-77
2022/09/22 08:11:43;;;;;;;13.77;9.48;;;;;;;17.72;50.13;102444.53;5029522;28;20565;-76
2022/09/22 08:14:11;;;;;;;15.15;9.18;;;;;;;17.80;50.23;102441.47;5028766;28;20709;-77
2022/09/22 08:16:39;;;;;;;12.77;9.50;;;;;;;17.79;49.99;102434.34;5029838;28;20505;-74
2022/09/22 08:19:11;;;;;;;18.05;10.07;;;;;;;17.95;49.64;102427.38;5030048;28;20179;-76
2022/09/22 08:21:42;;;;;;;14.13;10.98;;;;;;;18.15;49.83;102423.28;5030166;28;20824;-76
2022/09/22 08:24:09;;;;;;;;;;;;;;;18.36;49.09;102424.56;5029620;28;20037;-76
2022/09/22 08:26:35;;;;;;;10.20;7.70;;;;;;;18.43;48.59;102430.75;5029035;28;19921;-76
2022/09/22 08:29:03;;;;;;;15.75;9.40;;;;;;;18.58;48.74;102435.69;5028680;28;20029;-75
2022/09/22 08:31:30;;;;;;;12.35;8.07;;;;;;;18.67;49.84;102442.44;5029298;28;20056;-75
2022/09/22 08:33:57;;;;;;;14.15;8.10;;;;;;;19.03;48.54;102439.34;5016068;28;20540;-75
2022/09/22 08:36:26;;;;;;;12.27;8.18;;;;;;;19.08;49.09;102434.03;5033912;28;20042;-78
2022/09/22 08:38:53;;;;;;;12.68;8.50;;;;;;;18.98;49.05;102439.28;5036925;28;20086;-75
2022/09/22 08:41:40;;;;;;;13.43;8.18;;;;;;;18.89;49.92;102435.25;5037152;28;20514;-76
2022/09/22 08:44:05;;;;;;;15.00;9.50;;;;;;;18.93;49.96;102433.69;5034871;28;20033;-77
2022/09/22 08:46:37;;;;;;;14.90;9.55;;;;;;;18.96;49.50;102435.97;5038058;28;20121;-77
2022/09/22 08:52:22;;;;;;;17.55;9.20;;;;;;;19.25;49.18;102434.91;5035218;28;20106;-76
2022/09/22 08:54:48;;;;;;;21.02;8.18;;;;;;;19.32;49.26;102427.38;5037307;28;20030;-77
2022/09/22 08:57:39;;;;;;;14.15;10.32;;;;;;;19.52;49.18;102429.72;5032292;28;20037;-76
2022/09/22 09:00:11;;;;;;;;;;;;;;;19.53;49.25;102431.34;5029691;28;20038;-76
2022/09/22 09:02:48;;;;;;;12.52;8.18;;;;;;;19.70;48.58;102433.03;5031807;28;19923;-70
2022/09/22 09:05:45;;;;;;;14.50;8.70;;;;;;;19.82;47.55;102431.03;5036782;28;20068;-68
2022/09/22 09:08:33;;;;;;;11.02;8.40;;;;;;;19.93;47.90;102429.31;5029978;28;20021;-69
2022/09/22 09:11:27;;;;;;;8.48;7.40;;;;;;;20.23;47.11;102424.34;5033394;28;20053;-72
2022/09/22 09:14:07;;;;;;;11.63;7.03;;;;;;;20.50;45.33;102422.53;5033490;28;20025;-71
2022/09/22 09:16:43;;;;;;;7.28;6.18;;;;;;;20.60;44.91;102424.59;5028545;28;20612;-71
2022/09/22 09:19:19;;;;;;;11.38;6.78;;;;;;;20.71;44.69;102424.47;5030146;28;20041;-71
2022/09/22 09:21:53;;;;;;;9.63;6.10;;;;;;;20.90;43.66;102422.25;5032652;28;20037;-72
2022/09/22 09:24:31;;;;;;;8.35;5.22;;;;;;;20.59;43.42;102420.22;5032459;28;20044;-71
2022/09/22 09:27:05;;;;;;;10.40;5.72;;;;;;;20.31;44.93;102420.34;5032568;28;20053;-72
2022/09/22 09:29:33;;;;;;;12.85;4.85;;;;;;;20.65;43.36;102417.31;5032470;28;20121;-72
2022/09/22 09:32:02;;;;;;;9.15;5.85;;;;;;;21.11;42.15;102409.69;5030667;28;20039;-72
2022/09/22 09:34:29;;;;;;;13.65;5.10;;;;;;;21.23;41.76;102408.41;5034864;28;20033;-73
2022/09/22 09:37:06;;;;;;;10.35;4.63;;;;;;;21.47;41.37;102417.97;5029822;28;20124;-69
2022/09/22 09:39:37;;;;;;;8.82;4.70;;;;;;;21.46;41.62;102408.09;5028687;28;20433;-72
2022/09/22 09:42:16;;;;;;;8.82;4.88;;;;;;;21.59;41.10;102402.22;5027638;28;20088;-71
2022/09/22 09:44:43;;;;;;;7.68;5.10;;;;;;;21.88;40.81;102404.69;5026313;28;20175;-71
2022/09/22 09:47:32;;;;;;;13.30;4.32;;;;;;;22.03;39.68;102407.53;5029780;28;20029;-73
2022/09/22 09:49:58;;;;;;;4.35;2.67;;;;;;;21.90;39.22;102400.56;5028344;28;20033;-70
2022/09/22 09:52:26;;;;;;;9.85;3.42;;;;;;;21.48;39.63;102407.88;5029815;28;20060;-73
2022/09/22 09:54:53;;;;;;;6.97;3.63;;;;;;;21.80;39.65;102404.06;5029307;28;20497;-72
2022/09/22 09:57:20;;;;;;;8.57;3.38;;;;;;;21.80;39.92;102401.31;5029658;28;20141;-71
2022/09/22 10:00:32;;;;;;;10.07;4.60;;;;;;;22.00;38.82;102400.66;5030144;28;20477;-71
2022/09/22 10:03:16;;;;;;;8.85;3.35;;;;;;;21.96;38.80;102409.63;5007807;28;20041;-70
2022/09/22 10:05:42;;;;;;;9.30;3.58;;;;;;;22.56;38.55;102404.53;5006101;28;20488;-72
2022/09/22 10:08:20;;;;;;;7.47;4.03;;;;;;;23.00;38.25;102411.31;5005803;28;20042;-72
2022/09/22 10:10:46;;;;;;;9.85;3.67;;;;;;;23.06;37.44;102402.00;4982936;28;20034;-76
2022/09/22 10:13:12;;;;;;;8.70;3.55;;;;;;;22.87;36.91;102403.59;5019291;28;20057;-76
2022/09/22 10:15:39;;;;;;;12.68;3.50;;;;;;;22.69;37.16;102398.59;5005944;28;20563;-76
2022/09/22 10:18:23;;;;;;;9.77;3.20;;;;;;;23.17;36.62;102400.13;5005727;28;20096;-76
2022/09/22 10:21:02;;;;;;;11.65;3.08;;;;;;;23.40;36.98;102399.63;5014088;28;20034;-77
2022/09/22 10:23:28;;;;;;;9.13;2.97;;;;;;;23.53;36.74;102399.91;5025356;28;20038;-75
2022/09/22 10:26:12;;;;;;;5.20;2.47;;;;;;;23.58;35.26;102401.84;5009720;28;20084;-75
2022/09/22 10:28:38;;;;;;;5.63;2.95;;;;;;;23.69;34.86;102391.69;5027108;28;20069;-78
2022/09/22 10:31:03;;;;;;;6.40;2.65;;;;;;;23.71;35.75;102395.81;5024326;28;20188;-77
2022/09/22 10:33:29;;;;;;;5.97;2.80;;;;;;;23.96;36.02;102381.25;5025856;28;20037;-75
2022/09/22 10:36:09;;;;;;;2.95;2.13;;;;;;;23.34;35.92;102387.00;5028348;28;20033;-66
2022/09/22 10:38:42;;;;;;;6.97;2.75;;;;;;;23.67;36.00;102386.47;5017477;28;20124;-67
2022/09/22 10:41:20;;;;;;;7.53;2.58;;;;;;;23.72;34.25;102381.00;5007658;28;20037;-67
2022/09/22 10:43:51;;;;;;;7.05;2.38;;;;;;;23.79;34.81;102378.78;5031724;28;20033;-68
2022/09/22 10:46:48;;;;;;;11.35;3.08;;;;;;;24.11;34.32;102373.00;5029876;28;20045;-67
2022/09/22 10:49:30;;;;;;;6.25;2.20;;;;;;;24.25;33.87;102374.06;5029954;28;20041;-66
2022/09/22 10:52:24;;;;;;;6.35;2.00;;;;;;;23.46;33.65;102369.19;5030741;28;20113;-66
2022/09/22 10:54:57;;;;;;;2.55;1.50;;;;;;;24.02;34.06;102363.66;5030127;28;20042;-66
2022/09/22 10:57:35;;;;;;;6.30;2.22;;;;;;;24.53;33.08;102362.41;5029962;28;20047;-64
2022/09/22 11:00:09;;;;;;;4.07;1.88;;;;;;;24.69;33.11;102360.41;5029732;28;20044;-65
2022/09/22 11:03:07;;;;;;;9.68;2.63;;;;;;;24.19;32.07;102354.03;5030654;28;20033;-67
2022/09/22 11:12:18;;;;;;;5.88;2.20;;;;;;;24.83;30.99;102347.72;5030548;28;20115;-67
2022/09/22 11:15:16;;;;;;;4.75;2.00;;;;;;;24.60;31.61;102348.38;5030021;28;20521;-65
2022/09/22 11:18:08;;;;;;;4.00;1.65;;;;;;;25.19;31.22;102338.97;5028961;28;20049;-66
2022/09/22 11:20:43;;;;;;;8.45;2.42;;;;;;;25.11;32.42;102342.31;5029067;28;20121;-68
2022/09/22 11:23:31;;;;;;;7.75;2.15;;;;;;;24.48;31.20;102339.63;5030136;28;20041;-66
2022/09/22 11:26:37;;;;;;;10.57;2.35;;;;;;;25.68;31.13;102335.25;5030282;28;20132;-65
2022/09/22 11:29:08;;;;;;;6.93;2.33;;;;;;;25.81;29.41;102331.81;5029846;28;20048;-67
2022/09/22 11:32:08;;;;;;;6.72;2.83;;;;;;;25.37;29.38;102325.59;5029955;28;20030;-66
2022/09/22 11:34:53;;;;;;;5.43;1.95;;;;;;;25.71;30.42;102326.44;5003349;28;20494;-66
2022/09/22 11:38:04;;;;;;;4.32;1.85;;;;;;;25.74;29.16;102323.09;5003714;28;20046;-68
2022/09/22 11:40:44;;;;;;;8.32;1.83;;;;;;;26.01;29.78;102318.66;5007771;28;20375;-67
2022/09/22 11:43:34;;;;;;;5.72;1.67;;;;;;;26.27;28.95;102313.72;5007570;28;20049;-66
2022/09/22 11:46:02;;;;;;;5.68;2.65;;;;;;;26.12;28.57;102313.06;5001631;28;20056;-67
2022/09/22 11:48:39;;;;;;;8.65;2.00;;;;;;;25.70;29.65;102311.00;5003199;28;20065;-66
2022/09/22 11:51:18;;;;;;;4.57;2.03;;;;;;;26.09;29.21;102312.53;5003708;28;20045;-67
2022/09/22 11:53:49;;;;;;;7.72;2.70;;;;;;;26.34;29.33;102302.34;5003808;28;20046;-67